Terminal Aerodrome Forecast
Issued by NWS

Home | Current Version | Previous Version | Text Only | Print | Product List | Glossary On
Versions: 1 2 3 4 5 6 7 8 9 10 11 12 13 14 15 16 17 18 19 20
000
FTUS44 KLZK 250209 AAA
TAFLLQ
TAF AMD
KLLQ 250209Z 2502/2524 30010KT P6SM SCT040
     FM250400 30010G16KT P6SM FEW040
     FM251000 31008G15KT P6SM SCT250
     FM251600 32008KT P6SM SCT250=

USA.gov is the U.S. government's official web portal to all federal, state and local government web resources and services.